Ostend, Belgium

4:06 AM CEST on September 21, 2014 (GMT +0200)
Bredene Dorp | Change Station
CLOSE
Current Station
Personal Weather Station
Location: Bredene, FLANDERS
Elevation: 3 ft
Nearby Weather Stations

Elev 3 ft 51.24 °N, 2.97 °E | Updated 48 seconds ago

Overcast
Overcast
62.8 °F
Feels Like 62.8 °F
N
4.0
Wind Variable Wind from NE
Gusts 4.0 mph

Today
High -- | Low -- °F
--% Chance of Precip.
Yesterday
High -- | Low -- °F
Precip. -- in
7:32 AM 7:49 PM
Waning Crescent, 9% visible
Pressure 30.04 in
Visibility 4.3 miles
Clouds Overcast 600 ft
Dew Point 62 °F
Humidity 96%
Rainfall 0.00 in
Snow Depth Not available.
UV 0 out of 12
Pollen Not available.
Air Quality Not available.
Flu Activity Not available.
METAR LFQQ 210200Z AUTO 30006KT 7000 OVC006/// ///TCU 17/16 Q1017

More Conditions Fewer Conditions

Pressure 30.04 in
Visibility 4.3 miles
Clouds Overcast 600 ft
Dew Point 62 °F
Humidity 96%
Rainfall 0.00 in
Snow Depth Not available.
UV 0 out of 12
Pollen Not available.
Air Quality Not available.
Flu Activity Not available.
METAR LFQQ 210200Z AUTO 30006KT 7000 OVC006/// ///TCU 17/16 Q1017

More Conditions Fewer Conditions

10-Day Weather Forecast

Almanac

Astronomy

Sep. 21, 2014 Rise Set
Actual Time 7:32 AM CEST 7:49 PM CEST
Civil Twilight 6:59 AM CEST 8:22 PM CEST
Nautical Twilight 6:20 AM CEST 9:01 PM CEST
Astronomical Twilight 5:39 AM CEST 9:42 PM CEST
Moon 4:38 AM CEST 6:28 PM CEST
Length of Visible Light 13h 22m
Length of Day
12h 16m
Tomorrow will be 3m 52s shorter.
Waning Crescent, 9% of the Moon is Illuminated
Sep 20
Waning Crescent
Sep 24
New
Oct 1
First Quarter
Oct 8
Full
Oct 15
Last Quarter

Yesterday's Extremes

Country Highs Country Lows

Community

WunderPhotos

Upload Photos

1,755,032 photos uploaded!

WunderBlogs® & News

Nearby

Snow Depth

Not available.

Earthquake Activity

City Distance Mag. Time & Date
No recent earthquake activity has been reported nearby.
Minimum magnitude displayed is 2.5.

Coastal Water Temperatures

Place Temperature
No Stations Reporting

Nearby Weather Stations